Dear users,  

The introduction of the upgraded GAFOR previously announced for June 8 has been postponed until further notice. Until then, the usual GAFOR is valid. You will be notified of any further changes.

Poštovani korisnici

Uvođenje unaprijeđenog GAFOR-a koje je prethodno najavljeno za 8. lipnja odgađa se do daljnjega. Do tada vrijedi uobičajeni GAFOR. O svim daljnjim promjenama bit ćete obavješteni.

METAR

METAR LDZA 300130Z 00000KT CAVOK 13/11 Q1014 NOSIG =
METAR LDSP 300130Z AUTO 35004KT CAVOK 15/11 Q1016=
METAR LDDU 300130Z 09003KT 020V110 CAVOK 15/10 Q1016 =
METAR LDZD 300130Z 13004KT CAVOK 12/12 Q1016 =
METAR LDPL 300130Z AUTO 08004KT CAVOK 12/10 Q1015=
METAR LDOS 300130Z 09005KT CAVOK 13/10 Q1015=
METAR LDRI 300130Z 13004KT CAVOK 17/14 Q1015=

TAF

TAF LDZA 292325Z 3000/3024 VRB02KT CAVOK
                 TX29/3013Z TN12/3003Z=
TAF LDSP 292325Z 3000/3024 VRB02KT CAVOK
                 TX26/3012Z TN16/3003Z
           BECMG 3010/3012 23010KT
           BECMG 3016/3018 VRB02KT=
TAF LDDU 292325Z 3000/3024 VRB02KT CAVOK
                 TX23/3009Z TN17/3000Z
    PROB40 TEMPO 3009/3016 25010KT=
TAF LDZD 292325Z 3000/3024 VRB02KT CAVOK
                 TX27/3012Z TN12/3003Z
           TEMPO 3010/3017 24010KT=
TAF LDPL 292325Z 3000/3024 VRB02KT CAVOK
                 TX26/3012Z TN13/3000Z
    PROB40 TEMPO 3007/3024 13008KT=
TAF LDOS 292325Z 3000/3024 12005KT CAVOK
                 TX29/3014Z TN11/3003Z=
TAF LDRI 292325Z 3000/3024 VRB02KT CAVOK
                 TX26/3012Z TN16/3003Z
    PROB40 TEMPO 3011/3015 30007KT=

SIGMET

AIRMET

Ukoliko se brzina i smjer vjetra ne mogu odrediti zbog privremenog kvara sustava/indikatora,
informacija o vjetru u METAR izvješću bit će prikazana kao "/////KT".

 

         

      Politika MET podataka      

 

Disclaimer

 

In case of temporary system/sensor failure, wind speed and direction data will be represented as "/////KT" in METAR report.